createdAt,value
2018-03-06T00:00:30.481Z,13.18
2018-03-06T00:02:56.926Z,17.33
2018-03-06T00:05:23.380Z,24.70
2018-03-06T00:07:49.824Z,18.75
2018-03-06T00:10:17.074Z,19.02
2018-03-06T00:12:43.541Z,21.30
2018-03-06T00:15:10.932Z,13.90
2018-03-06T00:17:37.365Z,21.08
2018-03-06T00:20:05.414Z,12.52
2018-03-06T00:22:31.847Z,17.45
2018-03-06T00:24:58.323Z,15.82
2018-03-06T00:27:24.755Z,20.37
2018-03-06T00:29:51.951Z,33.08
2018-03-06T00:32:19.035Z,16.52
2018-03-06T00:34:45.536Z,16.12
2018-03-06T00:37:12.700Z,13.62
2018-03-06T00:39:39.168Z,13.55
2018-03-06T00:42:05.581Z,17.33
2018-03-06T00:44:32.123Z,15.43
2018-03-06T00:46:58.529Z,23.02
2018-03-06T00:49:24.996Z,17.45
2018-03-06T00:51:51.417Z,21.50
2018-03-06T00:54:17.861Z,11.93
2018-03-06T00:56:45.301Z,10.30
2018-03-06T00:59:11.854Z,10.90
2018-03-06T01:01:42.557Z,20.73
2018-03-06T01:04:10.089Z,14.82
2018-03-06T01:06:37.372Z,20.33
2018-03-06T01:09:04.573Z,13.85
2018-03-06T01:11:31.363Z,12.73
2018-03-06T01:13:57.889Z,26.02
2018-03-06T01:16:24.457Z,16.15
2018-03-06T01:18:51.341Z,12.98
2018-03-06T01:21:17.937Z,22.17
2018-03-06T01:23:44.383Z,14.30
2018-03-06T01:26:10.857Z,13.40
2018-03-06T01:28:37.570Z,12.85
2018-03-06T01:31:04.020Z,18.70
2018-03-06T01:33:30.700Z,11.88
2018-03-06T01:35:57.907Z,12.65
2018-03-06T01:38:24.368Z,18.85
2018-03-06T01:40:50.852Z,18.50
2018-03-06T01:43:17.332Z,10.52
2018-03-06T01:45:43.820Z,23.77
2018-03-06T01:48:10.264Z,16.77
2018-03-06T01:50:37.075Z,20.23
2018-03-06T01:53:03.551Z,19.30
2018-03-06T01:55:30.017Z,12.35
2018-03-06T01:57:56.457Z,13.20
2018-03-06T02:00:24.981Z,10.50
2018-03-06T02:02:52.293Z,10.52
2018-03-06T02:05:20.489Z,11.52
2018-03-06T02:07:47.956Z,17.23
2018-03-06T02:10:14.453Z,12.45
2018-03-06T02:12:41.705Z,10.65
2018-03-06T02:15:08.175Z,11.90
2018-03-06T02:17:38.528Z,15.40
2018-03-06T02:20:05.024Z,18.35
2018-03-06T02:22:36.244Z,15.13
2018-03-06T02:25:03.495Z,12.88
2018-03-06T02:27:29.928Z,20.50
2018-03-06T02:29:56.405Z,17.08
2018-03-06T02:32:23.559Z,19.35
2018-03-06T02:34:50.024Z,20.08
2018-03-06T02:37:16.426Z,11.63
2018-03-06T02:39:42.907Z,19.48
2018-03-06T02:42:09.345Z,13.60
2018-03-06T02:44:37.067Z,12.23
2018-03-06T02:47:05.062Z,16.73
2018-03-06T02:49:34.295Z,21.37
2018-03-06T02:52:00.756Z,13.75
2018-03-06T02:54:27.932Z,10.93
2018-03-06T02:56:56.284Z,13.30
2018-03-06T02:59:23.711Z,14.15
2018-03-06T03:01:50.993Z,13.88
2018-03-06T03:04:17.448Z,16.27
2018-03-06T03:06:43.904Z,15.77
2018-03-06T03:12:30.036Z,13.80
2018-03-06T03:14:58.312Z,11.43
2018-03-06T03:17:25.672Z,19.33
2018-03-06T03:19:52.164Z,10.48
2018-03-06T03:22:20.214Z,27.87
2018-03-06T03:24:46.655Z,15.48
2018-03-06T03:27:13.133Z,15.63
2018-03-06T03:29:39.761Z,14.13
2018-03-06T03:32:06.209Z,18.52
2018-03-06T03:34:33.462Z,29.60
2018-03-06T03:36:59.917Z,17.92
2018-03-06T03:39:30.538Z,16.77
2018-03-06T03:41:56.998Z,21.02
2018-03-06T03:44:25.475Z,30.23
2018-03-06T03:46:51.900Z,17.42
2018-03-06T03:49:18.354Z,16.92
2018-03-06T03:51:44.780Z,14.75
2018-03-06T03:54:11.252Z,16.35
2018-03-06T03:56:37.690Z,15.48
2018-03-06T03:59:04.871Z,16.02
2018-03-06T04:01:31.284Z,13.05
2018-03-06T04:03:57.759Z,18.12
2018-03-06T04:06:24.213Z,13.88
2018-03-06T04:08:51.437Z,11.60
2018-03-06T04:11:17.888Z,12.52
2018-03-06T04:13:45.097Z,23.87
2018-03-06T04:16:11.534Z,20.80
2018-03-06T04:18:37.982Z,25.37
2018-03-06T04:21:04.456Z,26.90
2018-03-06T04:23:30.913Z,21.10
2018-03-06T04:25:58.093Z,13.23
2018-03-06T04:28:24.556Z,21.23
2018-03-06T04:30:50.988Z,23.45
2018-03-06T04:33:17.446Z,15.30
2018-03-06T04:35:43.880Z,17.67
2018-03-06T04:38:10.326Z,17.42
2018-03-06T04:40:37.530Z,16.20
2018-03-06T04:43:04.006Z,19.42
2018-03-06T04:45:30.442Z,18.83
2018-03-06T04:47:56.895Z,12.95
2018-03-06T04:50:23.339Z,13.90
2018-03-06T04:52:49.809Z,19.77
2018-03-06T04:55:16.240Z,15.48
2018-03-06T04:57:42.701Z,15.25
2018-03-06T05:00:09.160Z,17.87
2018-03-06T05:02:36.357Z,14.00
2018-03-06T05:05:02.820Z,14.98
2018-03-06T05:07:29.285Z,12.93
2018-03-06T05:09:55.736Z,12.25
2018-03-06T05:12:22.265Z,11.73
2018-03-06T05:14:48.737Z,14.57
2018-03-06T05:17:15.187Z,17.15
2018-03-06T05:19:41.632Z,17.55
2018-03-06T05:22:08.089Z,15.25
2018-03-06T05:24:35.268Z,17.00
2018-03-06T05:27:01.752Z,13.48
2018-03-06T05:29:28.928Z,12.35
2018-03-06T05:31:55.419Z,15.60
2018-03-06T05:34:21.850Z,13.55
2018-03-06T05:36:48.322Z,15.70
2018-03-06T05:39:15.540Z,12.63
2018-03-06T05:41:41.981Z,9.90
2018-03-06T05:44:08.396Z,12.27
2018-03-06T05:46:34.872Z,14.87
2018-03-06T05:49:02.295Z,11.73
2018-03-06T05:51:29.536Z,10.18
2018-03-06T05:53:55.975Z,8.80
2018-03-06T05:56:22.449Z,11.25
2018-03-06T05:58:48.884Z,12.65
2018-03-06T06:01:15.355Z,16.92
2018-03-06T06:03:41.802Z,15.73
2018-03-06T06:06:08.342Z,11.12
2018-03-06T06:08:35.721Z,9.32
2018-03-06T06:11:02.383Z,18.33
2018-03-06T06:13:29.016Z,7.97
2018-03-06T06:15:55.526Z,8.35
2018-03-06T06:18:22.002Z,9.68
2018-03-06T06:20:48.851Z,10.40
2018-03-06T06:23:16.091Z,8.10
2018-03-06T06:25:42.836Z,9.63
2018-03-06T06:28:10.007Z,7.68
2018-03-06T06:30:37.440Z,8.85
2018-03-06T06:33:04.558Z,9.45
2018-03-06T06:35:31.129Z,7.82
2018-03-06T06:37:58.175Z,8.80
2018-03-06T06:40:24.729Z,8.13
2018-03-06T06:42:51.412Z,8.75
2018-03-06T06:45:18.064Z,8.65
2018-03-06T06:47:44.504Z,10.38
2018-03-06T06:50:10.993Z,9.45
2018-03-06T06:52:38.136Z,25.08
2018-03-06T06:55:04.590Z,13.60
2018-03-06T06:57:31.824Z,12.23
2018-03-06T06:59:58.250Z,13.73
2018-03-06T07:02:24.655Z,10.65
2018-03-06T07:04:51.107Z,15.20
2018-03-06T07:07:17.536Z,13.23
2018-03-06T07:09:44.765Z,12.80
2018-03-06T07:12:11.227Z,12.65
2018-03-06T07:14:37.651Z,18.27
2018-03-06T07:17:04.089Z,14.07
2018-03-06T07:19:30.587Z,15.50
2018-03-06T07:21:57.884Z,15.23
2018-03-06T07:24:24.304Z,21.23
2018-03-06T07:26:50.724Z,16.60
2018-03-06T07:29:17.184Z,16.75
2018-03-06T07:31:43.612Z,27.75
2018-03-06T07:34:10.060Z,27.42
2018-03-06T07:36:37.261Z,25.10
2018-03-06T07:39:03.862Z,35.65
2018-03-06T07:41:30.307Z,17.23
2018-03-06T07:43:57.508Z,16.65
2018-03-06T07:46:23.940Z,19.52
2018-03-06T07:48:50.389Z,20.85
2018-03-06T07:51:16.808Z,21.65
2018-03-06T07:53:43.241Z,23.92
2018-03-06T07:56:09.702Z,25.80
2018-03-06T07:58:36.184Z,29.83
2018-03-06T08:01:02.647Z,28.25
2018-03-06T08:03:29.118Z,35.87
2018-03-06T08:05:55.553Z,26.60
2018-03-06T08:08:21.990Z,23.57
2018-03-06T08:10:48.433Z,27.47
2018-03-06T08:13:15.636Z,26.93
2018-03-06T08:15:42.056Z,29.47
2018-03-06T08:18:08.528Z,26.57
2018-03-06T08:20:34.953Z,34.07
2018-03-06T08:23:01.401Z,26.37
2018-03-06T08:25:27.810Z,31.73
2018-03-06T08:27:58.054Z,30.73
2018-03-06T08:30:24.468Z,31.67
2018-03-06T08:32:50.949Z,23.60
2018-03-06T08:35:17.386Z,26.43
2018-03-06T08:37:43.891Z,39.07
2018-03-06T08:40:10.338Z,36.10
2018-03-06T08:42:38.290Z,35.17
2018-03-06T08:45:04.734Z,37.30
2018-03-06T08:47:31.194Z,31.57
2018-03-06T08:49:58.385Z,28.37
2018-03-06T08:52:24.871Z,26.60
2018-03-06T08:54:51.263Z,32.60
2018-03-06T08:57:17.681Z,37.60
2018-03-06T08:59:44.133Z,25.93
2018-03-06T09:02:10.605Z,35.87
2018-03-06T09:04:37.019Z,27.60
2018-03-06T09:07:03.480Z,27.13
2018-03-06T09:09:29.903Z,24.03
2018-03-06T09:11:57.124Z,27.67
2018-03-06T09:14:23.558Z,25.87
2018-03-06T09:16:50.010Z,29.20
2018-03-06T09:19:16.459Z,32.27
2018-03-06T09:21:45.749Z,30.30
2018-03-06T09:24:12.148Z,32.23
2018-03-06T09:26:38.577Z,21.00
2018-03-06T09:29:04.976Z,34.60
2018-03-06T09:31:31.420Z,26.90
2018-03-06T09:33:58.571Z,21.90
2018-03-06T09:36:25.753Z,24.93
2018-03-06T09:38:52.190Z,30.90
2018-03-06T09:41:18.668Z,29.63
2018-03-06T09:43:45.079Z,33.57
2018-03-06T09:46:11.537Z,33.33
2018-03-06T09:48:38.708Z,24.73
2018-03-06T09:51:05.200Z,29.53
2018-03-06T09:53:31.625Z,21.70
2018-03-06T09:55:58.114Z,30.90
2018-03-06T09:58:25.280Z,26.93
2018-03-06T10:00:52.457Z,24.47
2018-03-06T10:03:18.892Z,32.03
2018-03-06T10:05:45.328Z,36.80
2018-03-06T10:08:11.783Z,23.43
2018-03-06T10:10:39.005Z,29.17
2018-03-06T10:13:05.432Z,24.70
2018-03-06T10:15:31.887Z,24.77
2018-03-06T10:17:58.308Z,30.53
2018-03-06T10:20:24.736Z,29.63
2018-03-06T10:22:51.128Z,22.50
2018-03-06T10:25:17.569Z,24.33
2018-03-06T10:27:43.980Z,26.47
2018-03-06T10:30:10.400Z,30.83
2018-03-06T10:32:36.796Z,27.93
2018-03-06T10:35:03.244Z,24.80
2018-03-06T10:37:29.672Z,31.63
2018-03-06T10:39:56.143Z,31.47
2018-03-06T10:42:22.576Z,34.17
2018-03-06T10:44:49.906Z,30.20
2018-03-06T10:47:16.313Z,25.80
2018-03-06T10:49:43.504Z,23.57
2018-03-06T10:52:09.914Z,21.80
2018-03-06T10:54:36.317Z,29.07
2018-03-06T10:57:03.472Z,27.47
2018-03-06T10:59:29.896Z,26.10
2018-03-06T11:01:57.098Z,30.73
2018-03-06T11:04:23.538Z,27.30
2018-03-06T11:06:49.943Z,29.80
2018-03-06T11:09:16.431Z,24.13
2018-03-06T11:11:42.887Z,28.50
2018-03-06T11:14:09.371Z,31.60
2018-03-06T11:16:36.033Z,27.17
2018-03-06T11:19:02.476Z,38.40
2018-03-06T11:21:28.998Z,34.87
2018-03-06T11:23:55.440Z,32.93
2018-03-06T11:26:21.837Z,19.77
2018-03-06T11:28:48.299Z,27.40
2018-03-06T11:31:14.745Z,25.77
2018-03-06T11:33:41.182Z,27.53
2018-03-06T11:36:07.724Z,23.90
2018-03-06T11:38:34.167Z,31.87
2018-03-06T11:41:00.588Z,28.50
2018-03-06T11:43:27.021Z,24.40
2018-03-06T11:45:53.468Z,22.73
2018-03-06T11:48:19.936Z,31.80
2018-03-06T11:50:46.397Z,18.00
2018-03-06T11:53:12.864Z,34.07
2018-03-06T11:55:39.288Z,24.80
2018-03-06T11:58:05.734Z,27.73
2018-03-06T12:00:32.153Z,25.57
2018-03-06T12:02:58.600Z,24.10
2018-03-06T12:05:25.126Z,30.70
2018-03-06T12:07:51.577Z,20.53
2018-03-06T12:10:18.202Z,18.20
2018-03-06T12:12:44.665Z,22.43
2018-03-06T12:15:11.827Z,23.77
2018-03-06T12:17:38.320Z,30.93
2018-03-06T12:20:04.889Z,24.83
2018-03-06T12:22:31.301Z,28.00
2018-03-06T12:24:57.876Z,21.30
2018-03-06T12:27:25.041Z,21.80
2018-03-06T12:29:52.196Z,23.60
2018-03-06T12:32:18.635Z,19.87
2018-03-06T12:34:45.087Z,26.87
2018-03-06T12:37:11.526Z,30.40
2018-03-06T12:39:37.983Z,19.57
2018-03-06T12:42:04.453Z,23.27
2018-03-06T12:44:32.586Z,17.23
2018-03-06T12:46:59.781Z,24.23
2018-03-06T12:49:27.091Z,21.73
2018-03-06T12:51:53.480Z,19.03
2018-03-06T12:54:19.914Z,17.53
2018-03-06T12:56:46.381Z,21.63
2018-03-06T12:59:12.825Z,16.57
2018-03-06T13:01:39.225Z,31.13
2018-03-06T13:04:06.404Z,26.33
2018-03-06T13:06:32.836Z,17.80
2018-03-06T13:09:00.100Z,24.83
2018-03-06T13:11:26.517Z,22.73
2018-03-06T13:13:52.965Z,21.83
2018-03-06T13:16:19.409Z,29.80
2018-03-06T13:18:45.836Z,35.07
2018-03-06T13:21:12.262Z,24.20
2018-03-06T13:23:38.701Z,30.07
2018-03-06T13:26:05.152Z,26.50
2018-03-06T13:28:31.606Z,21.47
2018-03-06T13:30:58.775Z,20.40
2018-03-06T13:33:25.217Z,23.47
2018-03-06T13:35:51.609Z,28.53
2018-03-06T13:38:18.795Z,20.53
2018-03-06T13:40:45.981Z,17.30
2018-03-06T13:43:12.476Z,16.73
2018-03-06T13:45:39.621Z,20.70
2018-03-06T13:48:06.048Z,25.40
2018-03-06T13:50:33.279Z,25.87
2018-03-06T13:53:00.540Z,25.73
2018-03-06T13:55:26.933Z,18.10
2018-03-06T13:57:53.390Z,23.33
2018-03-06T14:00:19.834Z,28.53
2018-03-06T14:02:50.164Z,26.03
2018-03-06T14:05:18.065Z,21.23
2018-03-06T14:07:44.512Z,20.90
2018-03-06T14:10:10.944Z,16.87
2018-03-06T14:12:37.405Z,24.80
2018-03-06T14:15:03.837Z,28.73
2018-03-06T14:17:30.263Z,25.30
2018-03-06T14:19:56.682Z,23.87
2018-03-06T14:22:23.122Z,16.33
2018-03-06T14:24:49.574Z,18.10
2018-03-06T14:27:16.009Z,18.83
2018-03-06T14:29:42.416Z,25.70
2018-03-06T14:32:08.944Z,30.77
2018-03-06T14:34:35.404Z,20.73
2018-03-06T14:37:01.844Z,16.50
2018-03-06T14:39:28.274Z,19.93
2018-03-06T14:41:54.729Z,27.57
2018-03-06T14:44:21.169Z,16.77
2018-03-06T14:46:47.655Z,19.83
2018-03-06T14:49:14.088Z,27.13
2018-03-06T14:51:41.253Z,27.93
2018-03-06T14:54:07.658Z,17.93
2018-03-06T14:56:34.854Z,16.27
2018-03-06T14:59:01.312Z,18.63
2018-03-06T15:01:27.772Z,18.13
2018-03-06T15:03:54.955Z,18.00
2018-03-06T15:06:21.388Z,23.83
2018-03-06T15:08:47.805Z,23.87
2018-03-06T15:11:15.114Z,23.37
2018-03-06T15:13:41.591Z,17.47
2018-03-06T15:16:08.057Z,16.37
2018-03-06T15:18:34.496Z,25.77
2018-03-06T15:21:00.988Z,23.33
2018-03-06T15:23:28.201Z,22.77
2018-03-06T15:25:54.619Z,18.10
2018-03-06T15:28:21.037Z,19.40
2018-03-06T15:30:47.479Z,26.00
2018-03-06T15:33:13.948Z,19.10
2018-03-06T15:35:40.378Z,21.60
2018-03-06T15:38:06.856Z,17.27
2018-03-06T15:40:34.169Z,25.67
2018-03-06T15:43:04.588Z,20.43
2018-03-06T15:45:31.043Z,36.33
2018-03-06T15:47:57.471Z,27.37
2018-03-06T15:50:23.883Z,15.10
2018-03-06T15:52:50.340Z,22.70
2018-03-06T15:55:16.815Z,18.60
2018-03-06T15:57:43.993Z,29.47
2018-03-06T16:00:10.436Z,23.03
2018-03-06T16:02:37.052Z,17.13
2018-03-06T16:05:03.545Z,20.80
2018-03-06T16:07:30.729Z,13.40
2018-03-06T16:09:57.372Z,24.63
2018-03-06T16:12:24.535Z,18.67
2018-03-06T16:14:50.978Z,13.37
2018-03-06T16:17:17.417Z,14.60
2018-03-06T16:19:43.831Z,15.03
2018-03-06T16:22:10.974Z,19.03
2018-03-06T16:24:38.163Z,17.50
2018-03-06T16:27:04.556Z,12.33
2018-03-06T16:29:31.007Z,11.40
2018-03-06T16:31:57.448Z,12.77
2018-03-06T16:34:23.888Z,18.87
2018-03-06T16:36:50.360Z,10.60
2018-03-06T16:39:16.768Z,15.67
2018-03-06T16:41:43.189Z,9.53
2018-03-06T16:44:09.638Z,14.93
2018-03-06T16:46:36.084Z,11.13
2018-03-06T16:49:02.621Z,9.57
2018-03-06T16:51:29.065Z,9.00
2018-03-06T16:53:55.512Z,20.93
2018-03-06T16:56:21.952Z,15.30
2018-03-06T16:58:49.116Z,17.20
2018-03-06T17:01:16.305Z,8.83
2018-03-06T17:03:42.739Z,11.60
2018-03-06T17:06:09.141Z,13.13
2018-03-06T17:08:36.345Z,9.63
2018-03-06T17:11:03.582Z,11.83
2018-03-06T17:13:30.110Z,19.83
2018-03-06T17:15:56.548Z,15.90
2018-03-06T17:18:23.004Z,11.23
2018-03-06T17:20:49.424Z,10.93
2018-03-06T17:23:16.872Z,11.13
2018-03-06T17:25:43.320Z,20.70
2018-03-06T17:28:09.923Z,10.23
2018-03-06T17:30:36.358Z,22.97
2018-03-06T17:33:03.658Z,17.90
2018-03-06T17:35:30.078Z,29.87
2018-03-06T17:37:56.525Z,22.87
2018-03-06T17:40:22.996Z,12.60
2018-03-06T17:42:49.432Z,17.10
2018-03-06T17:45:16.751Z,16.40
2018-03-06T17:47:43.219Z,23.60
2018-03-06T17:50:10.438Z,20.87
2018-03-06T17:52:37.892Z,20.77
2018-03-06T17:55:04.433Z,18.07
2018-03-06T17:57:30.922Z,12.37
2018-03-06T17:59:57.404Z,14.83
2018-03-06T18:02:23.857Z,11.97
2018-03-06T18:04:50.293Z,15.00
2018-03-06T18:07:16.818Z,18.13
2018-03-06T18:09:44.004Z,11.13
2018-03-06T18:12:10.802Z,19.17
2018-03-06T18:14:37.233Z,15.77
2018-03-06T18:17:03.685Z,21.97
2018-03-06T18:19:30.847Z,15.83
2018-03-06T18:21:57.352Z,14.03
2018-03-06T18:24:23.760Z,17.47
2018-03-06T18:26:50.231Z,16.60
2018-03-06T18:29:16.643Z,24.37
2018-03-06T18:31:43.340Z,16.90
2018-03-06T18:34:09.783Z,24.50
2018-03-06T18:36:36.949Z,26.50
2018-03-06T18:39:03.425Z,29.70
2018-03-06T18:41:29.870Z,32.80
2018-03-06T18:43:57.048Z,33.97
2018-03-06T18:46:24.270Z,31.03
2018-03-06T18:48:50.665Z,27.70
2018-03-06T18:51:17.123Z,22.73
2018-03-06T18:53:43.529Z,22.90
2018-03-06T18:56:10.017Z,32.13
2018-03-06T18:58:37.155Z,29.17
2018-03-06T19:04:20.127Z,24.47
2018-03-06T19:06:51.089Z,22.53
2018-03-06T19:09:17.505Z,25.00
2018-03-06T19:11:43.972Z,22.03
2018-03-06T19:14:10.426Z,26.60
2018-03-06T19:16:36.881Z,22.27
2018-03-06T19:19:04.097Z,29.20
2018-03-06T19:21:30.536Z,21.60
2018-03-06T19:23:56.950Z,26.10
2018-03-06T19:26:23.408Z,22.77
2018-03-06T19:28:49.824Z,25.43
2018-03-06T19:31:16.291Z,27.77
2018-03-06T19:33:42.712Z,31.03
2018-03-06T19:36:09.127Z,25.30
2018-03-06T19:38:35.568Z,27.57
2018-03-06T19:41:02.008Z,15.77
2018-03-06T19:43:28.404Z,31.60
2018-03-06T19:45:56.607Z,29.80
2018-03-06T19:48:23.043Z,17.90
2018-03-06T19:50:49.491Z,27.80
2018-03-06T19:53:15.927Z,24.30
2018-03-06T19:55:43.271Z,26.83
2018-03-06T19:58:09.692Z,27.50
2018-03-06T20:00:36.284Z,31.97
2018-03-06T20:03:02.742Z,25.60
2018-03-06T20:05:30.025Z,24.97
2018-03-06T20:10:53.648Z,31.50
2018-03-06T20:13:24.934Z,22.07
2018-03-06T20:15:51.493Z,26.93
2018-03-06T20:18:18.088Z,25.30
2018-03-06T20:20:44.707Z,33.93
2018-03-06T20:23:12.955Z,31.73
2018-03-06T20:25:45.665Z,20.83
2018-03-06T20:28:13.060Z,30.03
2018-03-06T20:30:45.729Z,31.17
2018-03-06T20:33:15.310Z,29.80
2018-03-06T20:35:41.854Z,30.07
2018-03-06T20:38:09.219Z,33.27
2018-03-06T20:40:36.559Z,29.53
2018-03-06T20:43:04.624Z,30.77
2018-03-06T20:48:33.464Z,26.40
2018-03-06T20:51:00.046Z,29.53
2018-03-06T20:53:32.659Z,27.63
2018-03-06T20:55:59.979Z,35.73
2018-03-06T20:58:26.551Z,27.10
2018-03-06T21:00:53.214Z,29.50
2018-03-06T21:03:19.787Z,34.50
2018-03-06T21:05:46.327Z,38.23
2018-03-06T21:08:13.084Z,30.93
2018-03-06T21:10:40.540Z,32.97
2018-03-06T21:13:08.028Z,32.27
2018-03-06T21:15:34.651Z,33.10
2018-03-06T21:18:01.269Z,34.93
2018-03-06T21:20:27.820Z,31.60
2018-03-06T21:22:54.399Z,30.83
2018-03-06T21:25:21.692Z,29.77
2018-03-06T21:27:49.249Z,28.73
2018-03-06T21:30:15.903Z,32.53
2018-03-06T21:32:42.477Z,32.83
2018-03-06T21:35:09.768Z,30.70
2018-03-06T21:37:36.325Z,31.73
2018-03-06T21:40:03.031Z,31.97
2018-03-06T21:42:29.700Z,30.17
2018-03-06T21:44:56.283Z,31.17
2018-03-06T21:47:23.619Z,31.77
2018-03-06T21:49:50.184Z,29.87
2018-03-06T21:52:16.884Z,31.57
2018-03-06T21:54:43.431Z,35.07
2018-03-06T21:57:10.027Z,22.40
2018-03-06T21:59:36.587Z,30.77
2018-03-06T22:02:03.206Z,27.57
2018-03-06T22:04:29.800Z,28.83
2018-03-06T22:06:57.139Z,33.57
2018-03-06T22:09:23.691Z,27.73
2018-03-06T22:11:50.329Z,28.77
2018-03-06T22:14:17.644Z,30.37
2018-03-06T22:16:44.283Z,28.90
2018-03-06T22:19:10.966Z,27.70
2018-03-06T22:21:38.347Z,30.43
2018-03-06T22:24:05.035Z,29.53
2018-03-06T22:26:32.376Z,28.23
2018-03-06T22:28:58.928Z,26.73
2018-03-06T22:31:25.499Z,20.73
2018-03-06T22:33:52.142Z,31.47
2018-03-06T22:36:18.746Z,26.60
2018-03-06T22:38:45.320Z,30.27
2018-03-06T22:41:12.619Z,31.57
2018-03-06T22:43:39.261Z,29.27
2018-03-06T22:46:06.037Z,32.03
2018-03-06T22:48:33.329Z,24.53
2018-03-06T22:50:59.886Z,31.87
2018-03-06T22:53:26.465Z,29.53
2018-03-06T22:55:53.106Z,27.67
2018-03-06T22:58:19.744Z,28.10
2018-03-06T23:00:47.368Z,29.03
2018-03-06T23:03:13.913Z,23.53
2018-03-06T23:05:40.499Z,27.20
2018-03-06T23:08:08.041Z,27.57
2018-03-06T23:10:35.477Z,27.80
2018-03-06T23:13:02.023Z,23.20
2018-03-06T23:15:28.642Z,25.53
2018-03-06T23:17:55.274Z,23.07
2018-03-06T23:20:21.906Z,26.47
2018-03-06T23:22:48.503Z,30.40
2018-03-06T23:25:15.161Z,30.67
2018-03-06T23:27:41.726Z,28.17
2018-03-06T23:30:08.327Z,25.20
2018-03-06T23:32:34.770Z,31.57
2018-03-06T23:35:02.011Z,26.57
2018-03-06T23:37:28.404Z,25.27
2018-03-06T23:39:54.799Z,25.10
2018-03-06T23:42:21.942Z,22.10
2018-03-06T23:44:48.443Z,24.53
2018-03-06T23:47:14.831Z,22.20
2018-03-06T23:49:41.988Z,22.73
2018-03-06T23:52:08.383Z,25.10
2018-03-06T23:54:36.287Z,23.77
2018-03-06T23:57:02.742Z,22.17
2018-03-06T23:59:29.150Z,22.43
